Darstellungsparameter: Aktuell verwendete Einstellungen:
Skalierung der Graphiken ... ?
xyx+y,   Skalierungsfaktor:      Skalierung: Modus: x, Faktor: 1
Darstellungszeitraum ... ?
Vom - - bis: - -   Zeitraum: 17.12.2020 - 18.12.2020
Min/Max/Avg-Anzeige ... ?
Zeige MMA aktuell
Zeige MMA Monat
Zeige MMA alles
Zeige --A aktuell
Zeige --A Monat
Zeige --A alles
Keine MMA-Anzeige
MMA:
Minimum Maximum Average (ber die Originaldaten)
MMA-Basis: 14.04.2020 - 16.05.2020
Quicknavigation für Darstellung... ?
Tage:      1T, 2T, 3T, 5T -1T -2T -3T -5T +1T +2T +3T +5T
Wochen: 1W, 2W, 3W -1W -2W -3W +1W +2W +3W
Monate: 1M, 3M, 6M -1M -3M -6M +1M +3M +6M
Jahre:    1J, 3J, 5J, 10J -1J -3J -5J -10J +1J +3J +5J +10J
Nutze für die Darstellung ... ?
Originaldaten oder Mittelwerte auf ...
Stundenbasis Tagesbasis Wochenbasis
Monatsbasis Jahresbasis      Datenbasis: Original-Daten
Darstellen als:
Statistik (Auto) Statistik J:M      Darstellung:
Zur Graphik,    zurück zur Übersicht aller Sensoren.
 
Tabellarische Datenbersicht: ?
 
Sensor: Nr:Datum:Temp:Abs-Feuchte:Windchill:Wind:
Aussen-T/F 1 17-12-2020 00:00:00 7.1 C 7.57 g/m*3 7.1 C 0 km/h
2 17-12-2020 00:05:00 7.1 C 7.57 g/m*3 7.1 C 3.2 km/h
3 17-12-2020 00:10:00 7.1 C 7.57 g/m*3 7.1 C 1.6 km/h
4 17-12-2020 00:15:00 7.1 C 7.57 g/m*3 7.1 C 1.6 km/h
5 17-12-2020 00:20:00 7.1 C 7.57 g/m*3 7.1 C 3.2 km/h
6 17-12-2020 00:25:00 7.1 C 7.57 g/m*3 7.1 C 1.6 km/h
7 17-12-2020 00:30:00 7.1 C 7.57 g/m*3 7.1 C 0 km/h
8 17-12-2020 00:35:00 7.1 C 7.57 g/m*3 7.1 C 3.2 km/h
9 17-12-2020 00:40:00 7.1 C 7.57 g/m*3 7.1 C 4.8 km/h
10 17-12-2020 00:45:00 6.9 C 7.47 g/m*3 6.9 C 4.8 km/h
11 17-12-2020 00:50:00 6.9 C 7.47 g/m*3 6.9 C 0 km/h
12 17-12-2020 00:55:00 6.8 C 7.42 g/m*3 6.8 C 0 km/h
13 17-12-2020 01:00:00 6.8 C 7.42 g/m*3 6.8 C 0 km/h
14 17-12-2020 01:05:00 6.8 C 7.42 g/m*3 6.8 C 0 km/h
15 17-12-2020 01:10:00 6.7 C 7.37 g/m*3 6.7 C 3.2 km/h
16 17-12-2020 01:15:00 6.7 C 7.37 g/m*3 6.7 C 1.6 km/h
17 17-12-2020 01:20:00 6.6 C 7.32 g/m*3 6.6 C 0 km/h
18 17-12-2020 01:25:00 6.5 C 7.27 g/m*3 6.5 C 0 km/h
19 17-12-2020 01:30:00 6.4 C 7.23 g/m*3 6.4 C 1.6 km/h
20 17-12-2020 01:35:00 6.4 C 7.23 g/m*3 6.4 C 4.8 km/h
21 17-12-2020 01:40:00 6.4 C 7.23 g/m*3 6.4 C 3.2 km/h
22 17-12-2020 01:45:00 6.4 C 7.23 g/m*3 6.4 C 4.8 km/h
23 17-12-2020 01:50:00 6.4 C 7.23 g/m*3 6.4 C 3.2 km/h
24 17-12-2020 01:55:00 6.3 C 7.18 g/m*3 6.3 C 3.2 km/h
25 17-12-2020 02:00:00 6.3 C 7.18 g/m*3 6.3 C 1.6 km/h
Sensor: Nr:Datum:Temp:Abs-Feuchte:Windchill:Wind:
Aussen-T/F 26 17-12-2020 02:05:00 6.3 C 7.18 g/m*3 6.3 C 0 km/h
27 17-12-2020 02:10:00 6.2 C 7.13 g/m*3 6.2 C 0 km/h
28 17-12-2020 02:15:00 6.2 C 7.13 g/m*3 6.2 C 0 km/h
29 17-12-2020 02:20:00 6.1 C 7.09 g/m*3 6.1 C 1.6 km/h
30 17-12-2020 02:25:00 6.1 C 7.09 g/m*3 6.1 C 0 km/h
31 17-12-2020 02:30:00 6.1 C 7.09 g/m*3 6.1 C 0 km/h
32 17-12-2020 02:35:00 6.1 C 7.09 g/m*3 6.1 C 0 km/h
33 17-12-2020 02:40:00 6.1 C 7.09 g/m*3 6.1 C 0 km/h
34 17-12-2020 02:45:00 6.2 C 7.21 g/m*3 6.2 C 0 km/h
35 17-12-2020 02:50:00 6.4 C 7.3 g/m*3 6.4 C 1.6 km/h
36 17-12-2020 02:55:00 6.6 C 7.4 g/m*3 6.6 C 3.2 km/h
37 17-12-2020 03:00:00 6.7 C 7.45 g/m*3 6.7 C 3.2 km/h
38 17-12-2020 03:05:00 6.8 C 7.5 g/m*3 6.8 C 4.8 km/h
39 17-12-2020 03:10:00 6.9 C 7.54 g/m*3 6.9 C 4.8 km/h
40 17-12-2020 03:15:00 7 C 7.59 g/m*3 7 C 1.6 km/h
41 17-12-2020 03:20:00 7 C 7.59 g/m*3 7 C 3.2 km/h
42 17-12-2020 03:25:00 7.1 C 7.64 g/m*3 7.1 C 1.6 km/h
43 17-12-2020 03:30:00 7.1 C 7.64 g/m*3 7.1 C 3.2 km/h
44 17-12-2020 03:35:00 7.2 C 7.69 g/m*3 7.2 C 4.8 km/h
45 17-12-2020 03:40:00 7.2 C 7.69 g/m*3 7.2 C 4.8 km/h
46 17-12-2020 03:45:00 7.2 C 7.69 g/m*3 7.2 C 1.6 km/h
47 17-12-2020 03:50:00 7.2 C 7.69 g/m*3 7.2 C 3.2 km/h
48 17-12-2020 03:55:00 7.3 C 7.74 g/m*3 7.3 C 3.2 km/h
49 17-12-2020 04:00:00 7.3 C 7.74 g/m*3 7.3 C 3.2 km/h
50 17-12-2020 04:05:00 7.3 C 7.74 g/m*3 7.3 C 0 km/h
Sensor: Nr:Datum:Temp:Abs-Feuchte:Windchill:Wind:
Aussen-T/F 51 17-12-2020 04:10:00 7.3 C 7.74 g/m*3 7.3 C 0 km/h
52 17-12-2020 04:15:00 7.3 C 7.74 g/m*3 7.3 C 0 km/h
53 17-12-2020 04:20:00 7.3 C 7.74 g/m*3 7.3 C 0 km/h
54 17-12-2020 04:25:00 7.3 C 7.74 g/m*3 7.3 C 0 km/h
55 17-12-2020 04:30:00 7.2 C 7.69 g/m*3 7.2 C 0 km/h
56 17-12-2020 04:35:00 7.2 C 7.69 g/m*3 7.2 C 0 km/h
57 17-12-2020 04:40:00 7.2 C 7.69 g/m*3 7.2 C 1.6 km/h
58 17-12-2020 04:45:00 7.2 C 7.69 g/m*3 7.2 C 3.2 km/h
59 17-12-2020 04:50:00 7.2 C 7.69 g/m*3 7.2 C 1.6 km/h
60 17-12-2020 04:55:00 7.2 C 7.69 g/m*3 7.2 C 0 km/h
61 17-12-2020 05:00:00 7.2 C 7.69 g/m*3 7.2 C 1.6 km/h
62 17-12-2020 05:05:00 7.2 C 7.69 g/m*3 7.2 C 3.2 km/h
63 17-12-2020 05:10:00 7.2 C 7.69 g/m*3 7.2 C 1.6 km/h
64 17-12-2020 05:15:00 7.2 C 7.69 g/m*3 7.2 C 3.2 km/h
65 17-12-2020 05:20:00 7.2 C 7.69 g/m*3 7.2 C 0 km/h
66 17-12-2020 05:25:00 7.2 C 7.69 g/m*3 7.2 C 1.6 km/h
67 17-12-2020 05:30:00 7.2 C 7.69 g/m*3 7.2 C 4.8 km/h
68 17-12-2020 05:35:00 7.2 C 7.69 g/m*3 7.2 C 0 km/h
69 17-12-2020 05:40:00 7.2 C 7.69 g/m*3 7.2 C 4.8 km/h
70 17-12-2020 05:45:00 7.2 C 7.69 g/m*3 7.2 C 1.6 km/h
71 17-12-2020 05:50:00 7.2 C 7.69 g/m*3 7.2 C 0 km/h
72 17-12-2020 05:55:00 7.2 C 7.69 g/m*3 7.2 C 0 km/h
73 17-12-2020 06:00:00 7.2 C 7.69 g/m*3 7.2 C 3.2 km/h
74 17-12-2020 06:05:00 7.2 C 7.69 g/m*3 7.2 C 3.2 km/h
75 17-12-2020 06:10:00 7.3 C 7.74 g/m*3 7.3 C 4.8 km/h
Sensor: Nr:Datum:Temp:Abs-Feuchte:Windchill:Wind:
Aussen-T/F 76 17-12-2020 06:15:00 7.3 C 7.74 g/m*3 7.3 C 1.6 km/h
77 17-12-2020 06:20:00 7.3 C 7.74 g/m*3 7.3 C 3.2 km/h
78 17-12-2020 06:25:00 7.3 C 7.74 g/m*3 7.3 C 1.6 km/h
79 17-12-2020 06:30:00 7.3 C 7.74 g/m*3 7.3 C 0 km/h
80 17-12-2020 06:35:00 7.3 C 7.74 g/m*3 7.3 C 1.6 km/h
81 17-12-2020 06:40:00 7.2 C 7.69 g/m*3 7.2 C 1.6 km/h
82 17-12-2020 06:45:00 7.2 C 7.69 g/m*3 7.2 C 1.6 km/h
83 17-12-2020 06:50:00 7.2 C 7.61 g/m*3 7.2 C 0 km/h
84 17-12-2020 06:55:00 7.2 C 7.61 g/m*3 7.2 C 1.6 km/h
85 17-12-2020 07:00:00 7.1 C 7.64 g/m*3 7.1 C 3.2 km/h
86 17-12-2020 07:05:00 7 C 7.59 g/m*3 7 C 3.2 km/h
87 17-12-2020 07:10:00 6.9 C 7.54 g/m*3 6.9 C 1.6 km/h
88 17-12-2020 07:15:00 6.8 C 7.42 g/m*3 6.8 C 0 km/h
89 17-12-2020 07:20:00 6.8 C 7.42 g/m*3 6.8 C 1.6 km/h
90 17-12-2020 07:25:00 6.8 C 7.42 g/m*3 6.8 C 0 km/h
91 17-12-2020 07:30:00 6.7 C 7.37 g/m*3 6.7 C 1.6 km/h
92 17-12-2020 07:35:00 6.7 C 7.37 g/m*3 6.7 C 3.2 km/h
93 17-12-2020 07:40:00 6.7 C 7.37 g/m*3 6.7 C 0 km/h
94 17-12-2020 07:45:00 6.6 C 7.4 g/m*3 6.6 C 0 km/h
95 17-12-2020 07:50:00 6.7 C 7.45 g/m*3 6.7 C 0 km/h
96 17-12-2020 07:55:00 6.7 C 7.45 g/m*3 6.7 C 0 km/h
97 17-12-2020 08:00:00 6.7 C 7.45 g/m*3 6.7 C 0 km/h
98 17-12-2020 08:05:00 6.7 C 7.45 g/m*3 6.7 C 0 km/h
99 17-12-2020 08:10:00 6.8 C 7.5 g/m*3 6.8 C 0 km/h
100 17-12-2020 08:15:00 6.8 C 7.5 g/m*3 6.8 C 3.2 km/h
Sensor: Nr:Datum:Temp:Abs-Feuchte:Windchill:Wind:
Aussen-T/F 101 17-12-2020 08:20:00 6.9 C 7.54 g/m*3 6.9 C 0 km/h
102 17-12-2020 08:25:00 7 C 7.59 g/m*3 7 C 0 km/h
103 17-12-2020 08:30:00 7.1 C 7.64 g/m*3 7.1 C 0 km/h
104 17-12-2020 08:35:00 7.2 C 7.69 g/m*3 7.2 C 1.6 km/h
105 17-12-2020 08:40:00 7.2 C 7.69 g/m*3 7.2 C 0 km/h
106 17-12-2020 08:45:00 7.3 C 7.74 g/m*3 7.3 C 0 km/h
107 17-12-2020 08:50:00 7.3 C 7.74 g/m*3 7.3 C 0 km/h
108 17-12-2020 08:55:00 7.4 C 7.79 g/m*3 7.4 C 3.2 km/h
109 17-12-2020 09:00:00 7.5 C 7.84 g/m*3 7.5 C 0 km/h
110 17-12-2020 09:05:00 7.6 C 7.9 g/m*3 7.6 C 0 km/h
111 17-12-2020 09:10:00 7.6 C 7.9 g/m*3 7.6 C 0 km/h
112 17-12-2020 09:15:00 7.6 C 7.9 g/m*3 7.6 C 1.6 km/h
113 17-12-2020 09:20:00 7.7 C 7.95 g/m*3 7.7 C 0 km/h
114 17-12-2020 09:25:00 7.7 C 7.95 g/m*3 7.7 C 0 km/h
115 17-12-2020 09:30:00 7.8 C 8 g/m*3 7.8 C 0 km/h
116 17-12-2020 09:35:00 7.9 C 8.05 g/m*3 7.9 C 0 km/h
117 17-12-2020 09:40:00 7.9 C 8.05 g/m*3 7.9 C 0 km/h
118 17-12-2020 09:45:00 8 C 8.1 g/m*3 8 C 0 km/h
119 17-12-2020 09:50:00 8.1 C 8.15 g/m*3 8.1 C 0 km/h
120 17-12-2020 09:55:00 8.1 C 8.15 g/m*3 8.1 C 4.8 km/h
121 17-12-2020 10:00:00 8.2 C 8.21 g/m*3 8.2 C 3.2 km/h
122 17-12-2020 10:05:00 8.4 C 8.31 g/m*3 7.11 C 8.1 km/h
123 17-12-2020 10:10:00 8.6 C 8.42 g/m*3 8.6 C 3.2 km/h
124 17-12-2020 10:15:00 8.7 C 8.48 g/m*3 8.7 C 0 km/h
125 17-12-2020 10:20:00 8.9 C 8.58 g/m*3 8.9 C 1.6 km/h
Sensor: Nr:Datum:Temp:Abs-Feuchte:Windchill:Wind:
Aussen-T/F 126 17-12-2020 10:25:00 9.1 C 8.7 g/m*3 9.1 C 0 km/h
127 17-12-2020 10:30:00 9.2 C 8.75 g/m*3 9.2 C 0 km/h
128 17-12-2020 10:35:00 9.3 C 8.81 g/m*3 9.3 C 3.2 km/h
129 17-12-2020 10:40:00 9.3 C 8.81 g/m*3 9.3 C 3.2 km/h
130 17-12-2020 10:45:00 9.2 C 8.75 g/m*3 8.45 C 6.4 km/h
131 17-12-2020 10:50:00 9.2 C 8.75 g/m*3 9.2 C 3.2 km/h
132 17-12-2020 10:55:00 9.2 C 8.75 g/m*3 9.2 C 1.6 km/h
133 17-12-2020 11:00:00 9.2 C 8.75 g/m*3 8.05 C 8.1 km/h
134 17-12-2020 11:05:00 9.2 C 8.75 g/m*3 9.2 C 1.6 km/h
135 17-12-2020 11:10:00 9.1 C 8.7 g/m*3 9.1 C 1.6 km/h
136 17-12-2020 11:15:00 9.1 C 8.7 g/m*3 9.1 C 0 km/h
137 17-12-2020 11:20:00 9.1 C 8.7 g/m*3 9.1 C 1.6 km/h
138 17-12-2020 11:25:00 9.1 C 8.7 g/m*3 9.1 C 1.6 km/h
139 17-12-2020 11:30:00 9.1 C 8.7 g/m*3 9.1 C 4.8 km/h
140 17-12-2020 11:35:00 9 C 8.64 g/m*3 9 C 4.8 km/h
141 17-12-2020 11:40:00 9 C 8.64 g/m*3 9 C 4.8 km/h
142 17-12-2020 11:45:00 8.9 C 8.58 g/m*3 8.1 C 6.4 km/h
143 17-12-2020 11:50:00 8.9 C 8.58 g/m*3 8.1 C 6.4 km/h
144 17-12-2020 11:55:00 8.8 C 8.44 g/m*3 7.98 C 6.4 km/h
145 17-12-2020 12:00:00 8.8 C 8.44 g/m*3 7.58 C 8.1 km/h
146 17-12-2020 12:05:00 8.8 C 8.44 g/m*3 6.97 C 11.3 km/h
147 17-12-2020 12:10:00 8.8 C 8.44 g/m*3 6.97 C 11.3 km/h
148 17-12-2020 12:15:00 8.8 C 8.44 g/m*3 8.8 C 0 km/h
149 17-12-2020 12:20:00 8.8 C 8.44 g/m*3 8.8 C 0 km/h
150 17-12-2020 12:25:00 8.8 C 8.44 g/m*3 8.8 C 4.8 km/h
Sensor: Nr:Datum:Temp:Abs-Feuchte:Windchill:Wind:
Aussen-T/F 151 17-12-2020 12:30:00 8.8 C 8.36 g/m*3 8.8 C 4.8 km/h
152 17-12-2020 12:35:00 8.9 C 8.41 g/m*3 7.69 C 8.1 km/h
153 17-12-2020 12:40:00 8.9 C 8.41 g/m*3 7.37 C 9.7 km/h
154 17-12-2020 12:45:00 9 C 8.38 g/m*3 7.49 C 9.7 km/h
155 17-12-2020 12:50:00 8.9 C 8.32 g/m*3 6.85 C 12.9 km/h
156 17-12-2020 12:55:00 9 C 8.29 g/m*3 6.97 C 12.9 km/h
157 17-12-2020 13:00:00 9.1 C 8.25 g/m*3 8.33 C 6.4 km/h
158 17-12-2020 13:05:00 9.2 C 8.3 g/m*3 7.21 C 12.9 km/h
159 17-12-2020 13:10:00 9.3 C 8.27 g/m*3 7.33 C 12.9 km/h
160 17-12-2020 13:15:00 9.4 C 8.32 g/m*3 7.04 C 16.1 km/h
161 17-12-2020 13:20:00 9.6 C 8.43 g/m*3 8.21 C 9.7 km/h
162 17-12-2020 13:25:00 9.7 C 8.39 g/m*3 8.06 C 11.3 km/h
163 17-12-2020 13:30:00 9.8 C 8.35 g/m*3 9.14 C 6.4 km/h
164 17-12-2020 13:35:00 9.9 C 8.4 g/m*3 9.25 C 6.4 km/h
165 17-12-2020 13:40:00 10 C 8.46 g/m*3 10 C 3.2 km/h
166 17-12-2020 13:45:00 10.1 C 8.32 g/m*3 7.91 C 16.1 km/h
167 17-12-2020 13:50:00 10.2 C 8.37 g/m*3 10.2 C 4.8 km/h
168 17-12-2020 13:55:00 10.2 C 8.37 g/m*3 8.92 C 9.7 km/h
169 17-12-2020 14:00:00 10.2 C 8.37 g/m*3 9.6 C 6.4 km/h
170 17-12-2020 14:05:00 10.2 C 8.37 g/m*3 9.22 C 8.1 km/h
171 17-12-2020 14:10:00 10.2 C 8.37 g/m*3 8.92 C 9.7 km/h
172 17-12-2020 14:15:00 10.2 C 8.18 g/m*3 8.43 C 12.9 km/h
173 17-12-2020 14:20:00 10.2 C 8.18 g/m*3 8.66 C 11.3 km/h
174 17-12-2020 14:25:00 10.3 C 8.33 g/m*3 9.72 C 6.4 km/h
175 17-12-2020 14:30:00 10.2 C 8.28 g/m*3 8.92 C 9.7 km/h
Sensor: Nr:Datum:Temp:Abs-Feuchte:Windchill:Wind:
Aussen-T/F 176 17-12-2020 14:35:00 10.2 C 8.18 g/m*3 8.92 C 9.7 km/h
177 17-12-2020 14:40:00 10.1 C 8.23 g/m*3 10.1 C 4.8 km/h
178 17-12-2020 14:45:00 10.1 C 8.23 g/m*3 10.1 C 3.2 km/h
179 17-12-2020 14:50:00 10.1 C 8.23 g/m*3 9.1 C 8.1 km/h
180 17-12-2020 14:55:00 10.1 C 8.23 g/m*3 9.48 C 6.4 km/h
181 17-12-2020 15:00:00 10.1 C 8.13 g/m*3 9.48 C 6.4 km/h
182 17-12-2020 15:05:00 10 C 8.08 g/m*3 9.37 C 6.4 km/h
183 17-12-2020 15:10:00 9.8 C 7.98 g/m*3 8.45 C 9.7 km/h
184 17-12-2020 15:15:00 9.8 C 7.98 g/m*3 9.8 C 3.2 km/h
185 17-12-2020 15:20:00 9.7 C 7.93 g/m*3 8.06 C 11.3 km/h
186 17-12-2020 15:25:00 9.6 C 7.88 g/m*3 9.6 C 4.8 km/h
187 17-12-2020 15:30:00 9.6 C 7.97 g/m*3 8.21 C 9.7 km/h
188 17-12-2020 15:35:00 9.4 C 7.87 g/m*3 7.97 C 9.7 km/h
189 17-12-2020 15:40:00 9.3 C 7.82 g/m*3 7.33 C 12.9 km/h
190 17-12-2020 15:45:00 9.3 C 7.82 g/m*3 8.56 C 6.4 km/h
191 17-12-2020 15:50:00 9.2 C 7.77 g/m*3 8.05 C 8.1 km/h
192 17-12-2020 15:55:00 9.2 C 7.77 g/m*3 7.73 C 9.7 km/h
193 17-12-2020 16:00:00 9.1 C 7.72 g/m*3 9.1 C 4.8 km/h
194 17-12-2020 16:05:00 9 C 7.67 g/m*3 7.81 C 8.1 km/h
195 17-12-2020 16:10:00 8.9 C 7.62 g/m*3 7.37 C 9.7 km/h
196 17-12-2020 16:15:00 8.8 C 7.66 g/m*3 6.72 C 12.9 km/h
197 17-12-2020 16:20:00 8.8 C 7.66 g/m*3 7.98 C 6.4 km/h
198 17-12-2020 16:25:00 8.7 C 7.61 g/m*3 7.87 C 6.4 km/h
199 17-12-2020 16:30:00 8.6 C 7.56 g/m*3 7.75 C 6.4 km/h
200 17-12-2020 16:35:00 8.4 C 7.55 g/m*3 8.4 C 4.8 km/h
Sensor: Nr:Datum:Temp:Abs-Feuchte:Windchill:Wind:
Aussen-T/F 201 17-12-2020 16:40:00 8.3 C 7.5 g/m*3 7.41 C 6.4 km/h
202 17-12-2020 16:45:00 8.2 C 7.45 g/m*3 7.29 C 6.4 km/h
203 17-12-2020 16:50:00 8.1 C 7.41 g/m*3 8.1 C 4.8 km/h
204 17-12-2020 16:55:00 7.9 C 7.39 g/m*3 6.94 C 6.4 km/h
205 17-12-2020 17:00:00 7.8 C 7.35 g/m*3 6.83 C 6.4 km/h
206 17-12-2020 17:05:00 7.8 C 7.35 g/m*3 7.8 C 4.8 km/h
207 17-12-2020 17:10:00 7.6 C 7.33 g/m*3 7.6 C 4.8 km/h
208 17-12-2020 17:15:00 7.5 C 7.28 g/m*3 6.48 C 6.4 km/h
209 17-12-2020 17:20:00 7.4 C 7.24 g/m*3 6.37 C 6.4 km/h
210 17-12-2020 17:25:00 7.3 C 7.19 g/m*3 6.25 C 6.4 km/h
211 17-12-2020 17:30:00 7.2 C 7.14 g/m*3 6.13 C 6.4 km/h
212 17-12-2020 17:35:00 7.1 C 7.18 g/m*3 6.02 C 6.4 km/h
213 17-12-2020 17:40:00 7.1 C 7.18 g/m*3 6.02 C 6.4 km/h
214 17-12-2020 17:45:00 7 C 7.13 g/m*3 7 C 4.8 km/h
215 17-12-2020 17:50:00 6.9 C 7.08 g/m*3 6.9 C 4.8 km/h
216 17-12-2020 17:55:00 6.8 C 7.11 g/m*3 5.67 C 6.4 km/h
217 17-12-2020 18:00:00 6.8 C 7.11 g/m*3 6.8 C 4.8 km/h
218 17-12-2020 18:05:00 6.8 C 7.11 g/m*3 5.67 C 6.4 km/h
219 17-12-2020 18:10:00 6.8 C 7.11 g/m*3 6.8 C 4.8 km/h
220 17-12-2020 18:15:00 6.8 C 7.19 g/m*3 5.67 C 6.4 km/h
221 17-12-2020 18:20:00 6.8 C 7.19 g/m*3 6.8 C 4.8 km/h
222 17-12-2020 18:25:00 6.8 C 7.19 g/m*3 6.8 C 3.2 km/h
223 17-12-2020 18:30:00 6.8 C 7.19 g/m*3 6.8 C 4.8 km/h
224 17-12-2020 18:35:00 6.8 C 7.19 g/m*3 6.8 C 4.8 km/h
225 17-12-2020 18:40:00 6.7 C 7.14 g/m*3 6.7 C 3.2 km/h
Sensor: Nr:Datum:Temp:Abs-Feuchte:Windchill:Wind:
Aussen-T/F 226 17-12-2020 18:45:00 6.6 C 7.1 g/m*3 6.6 C 0 km/h
227 17-12-2020 18:50:00 6.4 C 6.93 g/m*3 6.4 C 0 km/h
228 17-12-2020 18:55:00 6.2 C 6.84 g/m*3 6.2 C 3.2 km/h
229 17-12-2020 19:00:00 5.9 C 6.71 g/m*3 5.9 C 3.2 km/h
230 17-12-2020 19:05:00 5.8 C 6.66 g/m*3 5.8 C 0 km/h
231 17-12-2020 19:10:00 5.6 C 6.57 g/m*3 5.6 C 0 km/h
232 17-12-2020 19:15:00 5.4 C 6.49 g/m*3 5.4 C 0 km/h
233 17-12-2020 19:20:00 5.2 C 6.4 g/m*3 5.2 C 1.6 km/h
234 17-12-2020 19:25:00 5.1 C 6.36 g/m*3 5.1 C 0 km/h
235 17-12-2020 19:30:00 4.9 C 6.28 g/m*3 4.9 C 0 km/h
236 17-12-2020 19:35:00 4.8 C 6.24 g/m*3 4.8 C 0 km/h
237 17-12-2020 19:40:00 4.7 C 6.26 g/m*3 4.7 C 0 km/h
238 17-12-2020 19:45:00 4.6 C 6.22 g/m*3 4.6 C 0 km/h
239 17-12-2020 19:50:00 4.4 C 6.14 g/m*3 4.4 C 1.6 km/h
240 17-12-2020 19:55:00 4.3 C 6.1 g/m*3 4.3 C 0 km/h
241 17-12-2020 20:00:00 4.3 C 6.1 g/m*3 4.3 C 1.6 km/h
242 17-12-2020 20:05:00 4.3 C 6.16 g/m*3 4.3 C 0 km/h
243 17-12-2020 20:10:00 4.4 C 6.2 g/m*3 4.4 C 4.8 km/h
244 17-12-2020 20:15:00 4.6 C 6.29 g/m*3 4.6 C 4.8 km/h
245 17-12-2020 20:20:00 4.9 C 6.48 g/m*3 4.9 C 3.2 km/h
246 17-12-2020 20:25:00 5.2 C 6.61 g/m*3 5.2 C 4.8 km/h
247 17-12-2020 20:30:00 5.3 C 6.65 g/m*3 5.3 C 4.8 km/h
248 17-12-2020 20:35:00 5.4 C 6.7 g/m*3 5.4 C 4.8 km/h
249 17-12-2020 20:40:00 5.4 C 6.7 g/m*3 5.4 C 3.2 km/h
250 17-12-2020 20:45:00 5.3 C 6.65 g/m*3 5.3 C 3.2 km/h
Sensor: Nr:Datum:Temp:Abs-Feuchte:Windchill:Wind:
Aussen-T/F 251 17-12-2020 20:50:00 5.2 C 6.61 g/m*3 5.2 C 0 km/h
252 17-12-2020 20:55:00 4.9 C 6.41 g/m*3 4.9 C 3.2 km/h
253 17-12-2020 21:00:00 4.8 C 6.37 g/m*3 4.8 C 3.2 km/h
254 17-12-2020 21:05:00 4.8 C 6.44 g/m*3 4.8 C 3.2 km/h
255 17-12-2020 21:10:00 4.8 C 6.44 g/m*3 4.8 C 3.2 km/h
256 17-12-2020 21:15:00 4.9 C 6.48 g/m*3 4.9 C 0 km/h
257 17-12-2020 21:20:00 4.9 C 6.48 g/m*3 4.9 C 0 km/h
258 17-12-2020 21:25:00 4.9 C 6.48 g/m*3 4.9 C 0 km/h
259 17-12-2020 21:30:00 5 C 6.52 g/m*3 5 C 0 km/h
260 17-12-2020 21:35:00 5.1 C 6.57 g/m*3 5.1 C 0 km/h
261 17-12-2020 21:40:00 5.2 C 6.61 g/m*3 5.2 C 0 km/h
262 17-12-2020 21:45:00 5.3 C 6.65 g/m*3 5.3 C 0 km/h
263 17-12-2020 21:50:00 5.3 C 6.65 g/m*3 5.3 C 0 km/h
264 17-12-2020 21:55:00 5.4 C 6.77 g/m*3 5.4 C 0 km/h
265 17-12-2020 22:00:00 5.3 C 6.65 g/m*3 5.3 C 0 km/h
266 17-12-2020 22:05:00 5.2 C 6.61 g/m*3 5.2 C 0 km/h
267 17-12-2020 22:10:00 5 C 6.52 g/m*3 5 C 1.6 km/h
268 17-12-2020 22:15:00 4.9 C 6.48 g/m*3 4.9 C 0 km/h
269 17-12-2020 22:20:00 4.9 C 6.48 g/m*3 4.9 C 0 km/h
270 17-12-2020 22:25:00 4.9 C 6.48 g/m*3 4.9 C 0 km/h
271 17-12-2020 22:30:00 4.7 C 6.39 g/m*3 4.7 C 0 km/h
272 17-12-2020 22:35:00 4.6 C 6.35 g/m*3 4.6 C 0 km/h
273 17-12-2020 22:40:00 4.6 C 6.35 g/m*3 4.6 C 0 km/h
274 17-12-2020 22:45:00 4.7 C 6.39 g/m*3 4.7 C 1.6 km/h
275 17-12-2020 22:50:00 4.7 C 6.39 g/m*3 4.7 C 0 km/h
Sensor: Nr:Datum:Temp:Abs-Feuchte:Windchill:Wind:
Aussen-T/F 276 17-12-2020 22:55:00 4.7 C 6.39 g/m*3 4.7 C 0 km/h
277 17-12-2020 23:00:00 4.7 C 6.39 g/m*3 4.7 C 0 km/h
278 17-12-2020 23:05:00 4.6 C 6.35 g/m*3 4.6 C 0 km/h
279 17-12-2020 23:10:00 4.5 C 6.31 g/m*3 4.5 C 0 km/h
280 17-12-2020 23:15:00 4.5 C 6.31 g/m*3 4.5 C 0 km/h
281 17-12-2020 23:20:00 4.6 C 6.35 g/m*3 4.6 C 0 km/h
282 17-12-2020 23:25:00 4.8 C 6.5 g/m*3 4.8 C 0 km/h
283 17-12-2020 23:30:00 4.8 C 6.5 g/m*3 4.8 C 0 km/h
284 17-12-2020 23:35:00 4.9 C 6.55 g/m*3 4.9 C 0 km/h
285 17-12-2020 23:40:00 4.8 C 6.5 g/m*3 4.8 C 0 km/h
286 17-12-2020 23:45:00 4.7 C 6.39 g/m*3 4.7 C 0 km/h
287 17-12-2020 23:50:00 4.4 C 6.27 g/m*3 4.4 C 0 km/h
288 17-12-2020 23:55:00 4.3 C 6.23 g/m*3 4.3 C 0 km/h
289 18-12-2020 00:00:00 4.3 C 6.23 g/m*3 4.3 C 0 km/h
290 18-12-2020 00:05:00 4.3 C 6.23 g/m*3 4.3 C 0 km/h
291 18-12-2020 00:10:00 4.2 C 6.19 g/m*3 4.2 C 0 km/h
292 18-12-2020 00:15:00 4.2 C 6.19 g/m*3 4.2 C 0 km/h
293 18-12-2020 00:20:00 4.1 C 6.14 g/m*3 4.1 C 0 km/h
294 18-12-2020 00:25:00 4.1 C 6.14 g/m*3 4.1 C 0 km/h
295 18-12-2020 00:30:00 4.1 C 6.14 g/m*3 4.1 C 0 km/h
296 18-12-2020 00:35:00 4.1 C 6.14 g/m*3 4.1 C 0 km/h
297 18-12-2020 00:40:00 4.1 C 6.21 g/m*3 4.1 C 0 km/h
298 18-12-2020 00:45:00 4 C 6.1 g/m*3 4 C 0 km/h
299 18-12-2020 00:50:00 4.1 C 6.21 g/m*3 4.1 C 0 km/h
300 18-12-2020 00:55:00 4.1 C 6.21 g/m*3 4.1 C 0 km/h
Sensor: Nr:Datum:Temp:Abs-Feuchte:Windchill:Wind:
Aussen-T/F 301 18-12-2020 01:00:00 4.2 C 6.25 g/m*3 4.2 C 0 km/h
302 18-12-2020 01:05:00 4.3 C 6.29 g/m*3 4.3 C 1.6 km/h
303 18-12-2020 01:10:00 4.4 C 6.33 g/m*3 4.4 C 0 km/h
304 18-12-2020 01:15:00 4.4 C 6.33 g/m*3 4.4 C 0 km/h
305 18-12-2020 01:20:00 4.5 C 6.38 g/m*3 4.5 C 0 km/h
306 18-12-2020 01:25:00 4.6 C 6.42 g/m*3 4.6 C 0 km/h
307 18-12-2020 01:30:00 4.6 C 6.42 g/m*3 4.6 C 1.6 km/h
308 18-12-2020 01:35:00 4.6 C 6.42 g/m*3 4.6 C 3.2 km/h
309 18-12-2020 01:40:00 4.7 C 6.46 g/m*3 4.7 C 0 km/h
310 18-12-2020 01:45:00 4.7 C 6.46 g/m*3 4.7 C 0 km/h
311 18-12-2020 01:50:00 4.7 C 6.46 g/m*3 4.7 C 0 km/h
312 18-12-2020 01:55:00 4.7 C 6.46 g/m*3 4.7 C 0 km/h
313 18-12-2020 02:00:00 4.6 C 6.42 g/m*3 4.6 C 0 km/h
314 18-12-2020 02:05:00 4.4 C 6.33 g/m*3 4.4 C 0 km/h
315 18-12-2020 02:10:00 4.4 C 6.33 g/m*3 4.4 C 0 km/h
316 18-12-2020 02:15:00 4.4 C 6.33 g/m*3 4.4 C 0 km/h
317 18-12-2020 02:20:00 4.4 C 6.33 g/m*3 4.4 C 0 km/h
318 18-12-2020 02:25:00 4.4 C 6.33 g/m*3 4.4 C 0 km/h
319 18-12-2020 02:30:00 4.4 C 6.33 g/m*3 4.4 C 0 km/h
320 18-12-2020 02:35:00 4.3 C 6.29 g/m*3 4.3 C 0 km/h
321 18-12-2020 02:40:00 4.2 C 6.25 g/m*3 4.2 C 0 km/h
322 18-12-2020 02:45:00 4 C 6.17 g/m*3 4 C 0 km/h
323 18-12-2020 02:50:00 3.8 C 6.02 g/m*3 3.8 C 0 km/h
324 18-12-2020 02:55:00 3.6 C 5.94 g/m*3 3.6 C 0 km/h
325 18-12-2020 03:00:00 3.4 C 5.86 g/m*3 3.4 C 0 km/h
Sensor: Nr:Datum:Temp:Abs-Feuchte:Windchill:Wind:
Aussen-T/F 326 18-12-2020 03:05:00 3.3 C 5.82 g/m*3 3.3 C 0 km/h
327 18-12-2020 03:10:00 3.2 C 5.79 g/m*3 3.2 C 0 km/h
328 18-12-2020 03:15:00 3.2 C 5.79 g/m*3 3.2 C 0 km/h
329 18-12-2020 03:20:00 3.2 C 5.79 g/m*3 3.2 C 0 km/h
330 18-12-2020 03:25:00 3.2 C 5.85 g/m*3 3.2 C 0 km/h
331 18-12-2020 03:30:00 3.3 C 5.88 g/m*3 3.3 C 0 km/h
332 18-12-2020 03:35:00 3.4 C 5.92 g/m*3 3.4 C 0 km/h
333 18-12-2020 03:40:00 3.5 C 5.96 g/m*3 3.5 C 0 km/h
334 18-12-2020 03:45:00 3.6 C 6 g/m*3 3.6 C 0 km/h
335 18-12-2020 03:50:00 3.7 C 6.04 g/m*3 3.7 C 1.6 km/h
336 18-12-2020 03:55:00 3.8 C 6.09 g/m*3 3.8 C 0 km/h
337 18-12-2020 04:00:00 3.8 C 6.09 g/m*3 3.8 C 0 km/h
338 18-12-2020 04:05:00 3.9 C 6.13 g/m*3 3.9 C 0 km/h
339 18-12-2020 04:10:00 3.9 C 6.13 g/m*3 3.9 C 0 km/h
340 18-12-2020 04:15:00 3.9 C 6.13 g/m*3 3.9 C 0 km/h
341 18-12-2020 04:20:00 3.9 C 6.13 g/m*3 3.9 C 0 km/h
342 18-12-2020 04:25:00 4 C 6.17 g/m*3 4 C 0 km/h
343 18-12-2020 04:30:00 4.1 C 6.21 g/m*3 4.1 C 0 km/h
344 18-12-2020 04:35:00 4.1 C 6.21 g/m*3 4.1 C 0 km/h
345 18-12-2020 04:40:00 4.2 C 6.25 g/m*3 4.2 C 0 km/h
346 18-12-2020 04:45:00 4.2 C 6.25 g/m*3 4.2 C 1.6 km/h
347 18-12-2020 04:50:00 4.3 C 6.29 g/m*3 4.3 C 1.6 km/h
348 18-12-2020 04:55:00 4.3 C 6.29 g/m*3 4.3 C 0 km/h
349 18-12-2020 05:00:00 4.3 C 6.29 g/m*3 4.3 C 0 km/h
350 18-12-2020 05:05:00 4.3 C 6.29 g/m*3 4.3 C 0 km/h
Sensor: Nr:Datum:Temp:Abs-Feuchte:Windchill:Wind:
Aussen-T/F 351 18-12-2020 05:10:00 4.3 C 6.29 g/m*3 4.3 C 1.6 km/h
352 18-12-2020 05:15:00 4.2 C 6.25 g/m*3 4.2 C 0 km/h
353 18-12-2020 05:20:00 4.1 C 6.21 g/m*3 4.1 C 0 km/h
354 18-12-2020 05:25:00 3.9 C 6.13 g/m*3 3.9 C 0 km/h
355 18-12-2020 05:30:00 3.8 C 6.09 g/m*3 3.8 C 0 km/h
356 18-12-2020 05:35:00 3.6 C 6 g/m*3 3.6 C 0 km/h
357 18-12-2020 05:40:00 3.4 C 5.86 g/m*3 3.4 C 0 km/h
358 18-12-2020 05:45:00 3.2 C 5.79 g/m*3 3.2 C 0 km/h
359 18-12-2020 05:50:00 3.2 C 5.85 g/m*3 3.2 C 0 km/h
360 18-12-2020 05:55:00 3.2 C 5.85 g/m*3 3.2 C 0 km/h
361 18-12-2020 06:00:00 3.2 C 5.85 g/m*3 3.2 C 0 km/h
362 18-12-2020 06:05:00 3.3 C 5.88 g/m*3 3.3 C 0 km/h
363 18-12-2020 06:10:00 3.3 C 5.88 g/m*3 3.3 C 0 km/h
364 18-12-2020 06:15:00 3.2 C 5.85 g/m*3 3.2 C 0 km/h
365 18-12-2020 06:20:00 3.1 C 5.81 g/m*3 3.1 C 0 km/h
366 18-12-2020 06:25:00 3 C 5.77 g/m*3 3 C 0 km/h
367 18-12-2020 06:30:00 2.9 C 5.73 g/m*3 2.9 C 0 km/h
368 18-12-2020 06:35:00 2.9 C 5.73 g/m*3 2.9 C 0 km/h
369 18-12-2020 06:40:00 2.9 C 5.73 g/m*3 2.9 C 0 km/h
370 18-12-2020 06:45:00 2.9 C 5.73 g/m*3 2.9 C 0 km/h
371 18-12-2020 06:50:00 2.8 C 5.69 g/m*3 2.8 C 0 km/h
372 18-12-2020 06:55:00 2.8 C 5.69 g/m*3 2.8 C 0 km/h
373 18-12-2020 07:00:00 2.7 C 5.65 g/m*3 2.7 C 0 km/h
374 18-12-2020 07:05:00 2.6 C 5.61 g/m*3 2.6 C 0 km/h
375 18-12-2020 07:10:00 2.6 C 5.61 g/m*3 2.6 C 0 km/h
Sensor: Nr:Datum:Temp:Abs-Feuchte:Windchill:Wind:
Aussen-T/F 376 18-12-2020 07:15:00 2.6 C 5.61 g/m*3 2.6 C 0 km/h
377 18-12-2020 07:20:00 2.6 C 5.61 g/m*3 2.6 C 0 km/h
378 18-12-2020 07:25:00 2.6 C 5.61 g/m*3 2.6 C 0 km/h
379 18-12-2020 07:30:00 2.7 C 5.65 g/m*3 2.7 C 0 km/h
380 18-12-2020 07:35:00 2.7 C 5.65 g/m*3 2.7 C 1.6 km/h
381 18-12-2020 07:40:00 2.7 C 5.65 g/m*3 2.7 C 0 km/h
382 18-12-2020 07:45:00 2.6 C 5.61 g/m*3 2.6 C 0 km/h
383 18-12-2020 07:50:00 2.4 C 5.54 g/m*3 2.4 C 0 km/h
384 18-12-2020 07:55:00 2.3 C 5.5 g/m*3 2.3 C 0 km/h
385 18-12-2020 08:00:00 2.2 C 5.46 g/m*3 2.2 C 0 km/h
386 18-12-2020 08:05:00 2.2 C 5.46 g/m*3 2.2 C 0 km/h
387 18-12-2020 08:10:00 2.1 C 5.43 g/m*3 2.1 C 0 km/h
388 18-12-2020 08:15:00 2.1 C 5.43 g/m*3 2.1 C 0 km/h
389 18-12-2020 08:20:00 2.1 C 5.43 g/m*3 2.1 C 0 km/h
390 18-12-2020 08:25:00 2.2 C 5.46 g/m*3 2.2 C 0 km/h
391 18-12-2020 08:30:00 2.3 C 5.5 g/m*3 2.3 C 0 km/h
392 18-12-2020 08:35:00 2.4 C 5.54 g/m*3 2.4 C 0 km/h
393 18-12-2020 08:40:00 2.6 C 5.61 g/m*3 2.6 C 0 km/h
394 18-12-2020 08:45:00 2.7 C 5.65 g/m*3 2.7 C 0 km/h
395 18-12-2020 08:50:00 2.7 C 5.65 g/m*3 2.7 C 0 km/h
396 18-12-2020 08:55:00 2.6 C 5.61 g/m*3 2.6 C 0 km/h
397 18-12-2020 09:00:00 2.5 C 5.58 g/m*3 2.5 C 0 km/h
398 18-12-2020 09:05:00 2.4 C 5.54 g/m*3 2.4 C 0 km/h
399 18-12-2020 09:10:00 2.5 C 5.58 g/m*3 2.5 C 0 km/h
400 18-12-2020 09:15:00 2.4 C 5.54 g/m*3 2.4 C 0 km/h
Sensor: Nr:Datum:Temp:Abs-Feuchte:Windchill:Wind:
Aussen-T/F 401 18-12-2020 09:20:00 2.4 C 5.54 g/m*3 2.4 C 0 km/h
402 18-12-2020 09:25:00 2.3 C 5.5 g/m*3 2.3 C 0 km/h
403 18-12-2020 09:30:00 2.3 C 5.5 g/m*3 2.3 C 0 km/h
404 18-12-2020 09:35:00 2.3 C 5.5 g/m*3 2.3 C 0 km/h
405 18-12-2020 09:40:00 2.4 C 5.54 g/m*3 2.4 C 0 km/h
406 18-12-2020 09:45:00 2.6 C 5.61 g/m*3 2.6 C 0 km/h
407 18-12-2020 09:50:00 2.6 C 5.61 g/m*3 2.6 C 0 km/h
408 18-12-2020 09:55:00 2.7 C 5.65 g/m*3 2.7 C 0 km/h
409 18-12-2020 10:00:00 2.6 C 5.61 g/m*3 2.6 C 0 km/h
410 18-12-2020 10:05:00 2.6 C 5.61 g/m*3 2.6 C 0 km/h
411 18-12-2020 10:10:00 2.5 C 5.58 g/m*3 2.5 C 0 km/h
412 18-12-2020 10:15:00 2.4 C 5.54 g/m*3 2.4 C 0 km/h
413 18-12-2020 10:20:00 2.4 C 5.54 g/m*3 2.4 C 0 km/h
414 18-12-2020 10:25:00 2.3 C 5.5 g/m*3 2.3 C 0 km/h
415 18-12-2020 10:30:00 2.3 C 5.5 g/m*3 2.3 C 0 km/h
416 18-12-2020 10:35:00 2.3 C 5.5 g/m*3 2.3 C 0 km/h
417 18-12-2020 10:40:00 2.2 C 5.46 g/m*3 2.2 C 0 km/h
418 18-12-2020 10:45:00 2.2 C 5.46 g/m*3 2.2 C 0 km/h
419 18-12-2020 10:50:00 2.3 C 5.5 g/m*3 2.3 C 0 km/h
420 18-12-2020 10:55:00 2.3 C 5.5 g/m*3 2.3 C 0 km/h
421 18-12-2020 11:00:00 2.3 C 5.5 g/m*3 2.3 C 0 km/h
422 18-12-2020 11:05:00 2.4 C 5.54 g/m*3 2.4 C 0 km/h
423 18-12-2020 11:10:00 2.6 C 5.61 g/m*3 2.6 C 0 km/h
424 18-12-2020 11:15:00 2.7 C 5.65 g/m*3 2.7 C 1.6 km/h
425 18-12-2020 11:20:00 2.8 C 5.69 g/m*3 2.8 C 0 km/h
Sensor: Nr:Datum:Temp:Abs-Feuchte:Windchill:Wind:
Aussen-T/F 426 18-12-2020 11:25:00 2.9 C 5.73 g/m*3 2.9 C 0 km/h
427 18-12-2020 11:30:00 2.9 C 5.73 g/m*3 2.9 C 0 km/h
428 18-12-2020 11:35:00 3.1 C 5.81 g/m*3 3.1 C 0 km/h
429 18-12-2020 11:40:00 3.1 C 5.87 g/m*3 3.1 C 0 km/h
430 18-12-2020 11:45:00 3.2 C 5.91 g/m*3 3.2 C 0 km/h
431 18-12-2020 11:50:00 3.2 C 5.85 g/m*3 3.2 C 0 km/h
432 18-12-2020 11:55:00 3.3 C 5.88 g/m*3 3.3 C 1.6 km/h
433 18-12-2020 12:00:00 3.5 C 6.03 g/m*3 3.5 C 3.2 km/h
434 18-12-2020 12:05:00 3.7 C 6.11 g/m*3 3.7 C 3.2 km/h
435 18-12-2020 12:10:00 3.8 C 6.15 g/m*3 3.8 C 1.6 km/h
436 18-12-2020 12:15:00 3.8 C 6.15 g/m*3 3.8 C 4.8 km/h
437 18-12-2020 12:20:00 4 C 6.23 g/m*3 4 C 4.8 km/h
438 18-12-2020 12:25:00 4.1 C 6.27 g/m*3 4.1 C 4.8 km/h
439 18-12-2020 12:30:00 4.2 C 6.31 g/m*3 4.2 C 3.2 km/h
440 18-12-2020 12:35:00 4.4 C 6.4 g/m*3 4.4 C 3.2 km/h
441 18-12-2020 12:40:00 4.7 C 6.53 g/m*3 4.7 C 1.6 km/h
442 18-12-2020 12:45:00 4.9 C 6.62 g/m*3 4.9 C 0 km/h
443 18-12-2020 12:50:00 5.2 C 6.75 g/m*3 5.2 C 0 km/h
444 18-12-2020 12:55:00 5.3 C 6.79 g/m*3 5.3 C 0 km/h
445 18-12-2020 13:00:00 5.6 C 6.93 g/m*3 5.6 C 0 km/h
446 18-12-2020 13:05:00 5.8 C 7.02 g/m*3 5.8 C 0 km/h
447 18-12-2020 13:10:00 6.1 C 7.16 g/m*3 6.1 C 0 km/h
448 18-12-2020 13:15:00 6.3 C 7.25 g/m*3 6.3 C 0 km/h
449 18-12-2020 13:20:00 6.5 C 7.35 g/m*3 6.5 C 0 km/h
450 18-12-2020 13:25:00 6.8 C 7.5 g/m*3 6.8 C 0 km/h
Sensor: Nr:Datum:Temp:Abs-Feuchte:Windchill:Wind:
Aussen-T/F 451 18-12-2020 13:30:00 7 C 7.59 g/m*3 7 C 0 km/h
452 18-12-2020 13:35:00 7.1 C 7.64 g/m*3 7.1 C 0 km/h
453 18-12-2020 13:40:00 7.1 C 7.64 g/m*3 7.1 C 0 km/h
454 18-12-2020 13:45:00 7.1 C 7.64 g/m*3 7.1 C 0 km/h
455 18-12-2020 13:50:00 7.2 C 7.69 g/m*3 7.2 C 0 km/h
456 18-12-2020 13:55:00 7.3 C 7.74 g/m*3 7.3 C 0 km/h
457 18-12-2020 14:00:00 7.3 C 7.74 g/m*3 7.3 C 0 km/h
458 18-12-2020 14:05:00 7.2 C 7.69 g/m*3 7.2 C 0 km/h
459 18-12-2020 14:10:00 7.1 C 7.64 g/m*3 7.1 C 1.6 km/h
460 18-12-2020 14:15:00 6.9 C 7.54 g/m*3 6.9 C 3.2 km/h
461 18-12-2020 14:20:00 6.7 C 7.45 g/m*3 6.7 C 1.6 km/h
462 18-12-2020 14:25:00 6.7 C 7.45 g/m*3 6.7 C 3.2 km/h
463 18-12-2020 14:30:00 6.7 C 7.45 g/m*3 6.7 C 3.2 km/h
464 18-12-2020 14:35:00 6.7 C 7.45 g/m*3 6.7 C 0 km/h
465 18-12-2020 14:40:00 6.6 C 7.4 g/m*3 6.6 C 1.6 km/h
466 18-12-2020 14:45:00 6.6 C 7.4 g/m*3 6.6 C 4.8 km/h
467 18-12-2020 14:50:00 6.6 C 7.4 g/m*3 6.6 C 0 km/h
468 18-12-2020 14:55:00 6.5 C 7.35 g/m*3 6.5 C 1.6 km/h
469 18-12-2020 15:00:00 6.4 C 7.3 g/m*3 6.4 C 3.2 km/h
470 18-12-2020 15:05:00 6.4 C 7.3 g/m*3 5.21 C 6.4 km/h
471 18-12-2020 15:10:00 6.3 C 7.25 g/m*3 6.3 C 1.6 km/h
472 18-12-2020 15:15:00 6.2 C 7.21 g/m*3 6.2 C 3.2 km/h
473 18-12-2020 15:20:00 6.1 C 7.09 g/m*3 6.1 C 1.6 km/h
474 18-12-2020 15:25:00 6 C 7.04 g/m*3 6 C 0 km/h
475 18-12-2020 15:30:00 5.8 C 6.95 g/m*3 5.8 C 4.8 km/h
Sensor: Nr:Datum:Temp:Abs-Feuchte:Windchill:Wind:
Aussen-T/F 476 18-12-2020 15:35:00 5.7 C 6.9 g/m*3 5.7 C 3.2 km/h
477 18-12-2020 15:40:00 5.7 C 6.9 g/m*3 5.7 C 4.8 km/h
478 18-12-2020 15:45:00 5.6 C 6.86 g/m*3 5.6 C 3.2 km/h
479 18-12-2020 15:50:00 5.5 C 6.81 g/m*3 5.5 C 3.2 km/h
480 18-12-2020 15:55:00 5.4 C 6.77 g/m*3 5.4 C 3.2 km/h
481 18-12-2020 16:00:00 5.4 C 6.77 g/m*3 5.4 C 0 km/h
482 18-12-2020 16:05:00 5.3 C 6.72 g/m*3 5.3 C 0 km/h
483 18-12-2020 16:10:00 5.2 C 6.68 g/m*3 5.2 C 0 km/h
484 18-12-2020 16:15:00 5.1 C 6.63 g/m*3 5.1 C 0 km/h
485 18-12-2020 16:20:00 5 C 6.59 g/m*3 5 C 0 km/h
486 18-12-2020 16:25:00 4.9 C 6.55 g/m*3 4.9 C 3.2 km/h
487 18-12-2020 16:30:00 5.1 C 6.63 g/m*3 5.1 C 3.2 km/h
488 18-12-2020 16:35:00 5.2 C 6.68 g/m*3 3.34 C 8.1 km/h
489 18-12-2020 16:40:00 5.6 C 6.93 g/m*3 3.81 C 8.1 km/h
490 18-12-2020 16:45:00 5.8 C 7.02 g/m*3 5.8 C 4.8 km/h
491 18-12-2020 16:50:00 5.9 C 7.07 g/m*3 3.8 C 9.7 km/h
492 18-12-2020 16:55:00 6.1 C 7.16 g/m*3 6.1 C 4.8 km/h
493 18-12-2020 17:00:00 6.1 C 7.16 g/m*3 4.86 C 6.4 km/h
494 18-12-2020 17:05:00 6.1 C 7.16 g/m*3 4.4 C 8.1 km/h
495 18-12-2020 17:10:00 6.2 C 7.21 g/m*3 4.98 C 6.4 km/h
496 18-12-2020 17:15:00 6.1 C 7.16 g/m*3 6.1 C 0 km/h
497 18-12-2020 17:20:00 6.1 C 7.16 g/m*3 6.1 C 4.8 km/h
498 18-12-2020 17:25:00 5.9 C 6.99 g/m*3 5.9 C 0 km/h
499 18-12-2020 17:30:00 5.7 C 6.9 g/m*3 5.7 C 0 km/h
500 18-12-2020 17:35:00 5.4 C 6.77 g/m*3 5.4 C 0 km/h
Sensor: Nr:Datum:Temp:Abs-Feuchte:Windchill:Wind:
Aussen-T/F 501 18-12-2020 17:40:00 5.2 C 6.68 g/m*3 5.2 C 3.2 km/h
502 18-12-2020 17:45:00 5 C 6.59 g/m*3 3.59 C 6.4 km/h
503 18-12-2020 17:50:00 5 C 6.59 g/m*3 5 C 3.2 km/h
504 18-12-2020 17:55:00 5.2 C 6.68 g/m*3 5.2 C 1.6 km/h
505 18-12-2020 18:00:00 5.3 C 6.72 g/m*3 5.3 C 1.6 km/h
506 18-12-2020 18:05:00 5.3 C 6.72 g/m*3 5.3 C 1.6 km/h
507 18-12-2020 18:10:00 5.2 C 6.68 g/m*3 5.2 C 1.6 km/h
508 18-12-2020 18:15:00 5.2 C 6.68 g/m*3 5.2 C 3.2 km/h
509 18-12-2020 18:20:00 5.1 C 6.63 g/m*3 5.1 C 0 km/h
510 18-12-2020 18:25:00 4.8 C 6.5 g/m*3 4.8 C 0 km/h
511 18-12-2020 18:30:00 4.7 C 6.46 g/m*3 4.7 C 3.2 km/h
512 18-12-2020 18:35:00 4.7 C 6.46 g/m*3 4.7 C 4.8 km/h
513 18-12-2020 18:40:00 4.7 C 6.46 g/m*3 4.7 C 0 km/h
514 18-12-2020 18:45:00 4.8 C 6.5 g/m*3 4.8 C 1.6 km/h
515 18-12-2020 18:50:00 4.8 C 6.5 g/m*3 4.8 C 0 km/h
516 18-12-2020 18:55:00 4.9 C 6.55 g/m*3 4.9 C 1.6 km/h
517 18-12-2020 19:00:00 5.1 C 6.63 g/m*3 5.1 C 0 km/h
518 18-12-2020 19:05:00 5.1 C 6.63 g/m*3 5.1 C 0 km/h
519 18-12-2020 19:10:00 5.2 C 6.68 g/m*3 5.2 C 0 km/h
520 18-12-2020 19:15:00 5.3 C 6.79 g/m*3 5.3 C 0 km/h
521 18-12-2020 19:20:00 5.3 C 6.79 g/m*3 5.3 C 0 km/h
522 18-12-2020 19:25:00 5.2 C 6.68 g/m*3 5.2 C 0 km/h
523 18-12-2020 19:30:00 5 C 6.59 g/m*3 5 C 0 km/h
524 18-12-2020 19:35:00 4.8 C 6.5 g/m*3 4.8 C 0 km/h
525 18-12-2020 19:40:00 4.6 C 6.42 g/m*3 4.6 C 0 km/h
Sensor: Nr:Datum:Temp:Abs-Feuchte:Windchill:Wind:
Aussen-T/F 526 18-12-2020 19:45:00 4.4 C 6.33 g/m*3 4.4 C 0 km/h
527 18-12-2020 19:50:00 4.3 C 6.29 g/m*3 4.3 C 0 km/h
528 18-12-2020 19:55:00 4.3 C 6.29 g/m*3 4.3 C 3.2 km/h
529 18-12-2020 20:00:00 4.3 C 6.29 g/m*3 4.3 C 0 km/h
530 18-12-2020 20:05:00 4.2 C 6.25 g/m*3 4.2 C 0 km/h
531 18-12-2020 20:10:00 4.2 C 6.25 g/m*3 4.2 C 0 km/h
532 18-12-2020 20:15:00 4.1 C 6.21 g/m*3 4.1 C 0 km/h
533 18-12-2020 20:20:00 4.1 C 6.21 g/m*3 4.1 C 3.2 km/h
534 18-12-2020 20:25:00 4.1 C 6.21 g/m*3 4.1 C 1.6 km/h
535 18-12-2020 20:30:00 3.9 C 6.13 g/m*3 3.9 C 0 km/h
536 18-12-2020 20:35:00 3.8 C 6.09 g/m*3 3.8 C 0 km/h
537 18-12-2020 20:40:00 3.8 C 6.09 g/m*3 3.8 C 0 km/h
538 18-12-2020 20:45:00 3.7 C 6.04 g/m*3 3.7 C 0 km/h
539 18-12-2020 20:50:00 3.6 C 6 g/m*3 3.6 C 0 km/h
540 18-12-2020 20:55:00 3.5 C 5.96 g/m*3 3.5 C 0 km/h
541 18-12-2020 21:00:00 3.5 C 5.96 g/m*3 3.5 C 0 km/h
542 18-12-2020 21:05:00 3.4 C 5.92 g/m*3 3.4 C 0 km/h
543 18-12-2020 21:10:00 3.3 C 5.88 g/m*3 3.3 C 0 km/h
544 18-12-2020 21:15:00 3.3 C 5.88 g/m*3 3.3 C 3.2 km/h
545 18-12-2020 21:20:00 3.4 C 5.92 g/m*3 3.4 C 1.6 km/h
546 18-12-2020 21:25:00 3.5 C 5.96 g/m*3 3.5 C 0 km/h
547 18-12-2020 21:30:00 3.7 C 6.04 g/m*3 3.7 C 1.6 km/h
548 18-12-2020 21:35:00 3.9 C 6.13 g/m*3 3.9 C 0 km/h
549 18-12-2020 21:40:00 4.2 C 6.25 g/m*3 4.2 C 3.2 km/h
550 18-12-2020 21:45:00 4.4 C 6.4 g/m*3 4.4 C 0 km/h
Sensor: Nr:Datum:Temp:Abs-Feuchte:Windchill:Wind:
Aussen-T/F 551 18-12-2020 21:50:00 4.7 C 6.53 g/m*3 4.7 C 1.6 km/h
552 18-12-2020 21:55:00 4.9 C 6.62 g/m*3 4.9 C 3.2 km/h
553 18-12-2020 22:00:00 5.1 C 6.7 g/m*3 5.1 C 0 km/h
554 18-12-2020 22:05:00 5.2 C 6.75 g/m*3 5.2 C 0 km/h
555 18-12-2020 22:10:00 5.3 C 6.79 g/m*3 5.3 C 0 km/h
556 18-12-2020 22:15:00 5.3 C 6.79 g/m*3 5.3 C 0 km/h
557 18-12-2020 22:20:00 5.4 C 6.84 g/m*3 5.4 C 1.6 km/h
558 18-12-2020 22:25:00 5.5 C 6.88 g/m*3 5.5 C 0 km/h
559 18-12-2020 22:30:00 5.5 C 6.88 g/m*3 5.5 C 0 km/h
560 18-12-2020 22:35:00 5.6 C 6.93 g/m*3 5.6 C 3.2 km/h
561 18-12-2020 22:40:00 5.7 C 6.97 g/m*3 5.7 C 1.6 km/h
562 18-12-2020 22:45:00 5.8 C 7.02 g/m*3 4.05 C 8.1 km/h
563 18-12-2020 22:50:00 5.9 C 7.07 g/m*3 4.17 C 8.1 km/h
564 18-12-2020 22:55:00 6.1 C 7.16 g/m*3 6.1 C 0 km/h
565 18-12-2020 23:00:00 6.1 C 7.16 g/m*3 6.1 C 1.6 km/h
566 18-12-2020 23:05:00 6 C 7.11 g/m*3 6 C 0 km/h
567 18-12-2020 23:10:00 5.9 C 7.07 g/m*3 5.9 C 3.2 km/h
568 18-12-2020 23:15:00 5.9 C 7.07 g/m*3 5.9 C 3.2 km/h
569 18-12-2020 23:20:00 5.9 C 7.07 g/m*3 5.9 C 3.2 km/h
570 18-12-2020 23:25:00 5.9 C 7.07 g/m*3 5.9 C 0 km/h
571 18-12-2020 23:30:00 5.9 C 7.07 g/m*3 5.9 C 0 km/h
572 18-12-2020 23:35:00 5.9 C 7.07 g/m*3 5.9 C 0 km/h
573 18-12-2020 23:40:00 5.9 C 7.07 g/m*3 5.9 C 0 km/h
574 18-12-2020 23:45:00 5.9 C 7.07 g/m*3 5.9 C 0 km/h
575 18-12-2020 23:50:00 5.8 C 7.02 g/m*3 5.8 C 0 km/h
Sensor: Nr:Datum:Temp:Abs-Feuchte:Windchill:Wind:
Aussen-T/F 576 18-12-2020 23:55:00 5.8 C 7.02 g/m*3 5.8 C 0 km/h

Legende:
   Min
   Max


Maximal/Minimal-Werte vom 14.04.2020 - 16.05.2020

Sensor Min Max Avg
Temp
(Aussen-T/F)
-0.1 °C
15-04-2020  06:55:00
26.2 °C
17-04-2020  18:05:00
11.98 °C

Die Daten stammen von einer Davis Vantage Pro 2 Wetter-Station und werden unter Linux mit der Software wview2wettercgi und aufbereitet. Alle Angaben erfolgen ohne Gewähr für ihre Vollständigkeit oder Richtigkeit.
Kontakt: Rainer Krienke krienke@uni-koblenz.de . Meine Webseiten an der Uni Koblenz oder privat.
Version: $Revision: 0.78 $